AirNav   Everest Fuels
 
 551 users online  

02LS Windy Hill Heliport
Broussard, Louisiana, USA

GOING TO BROUSSARD?


FAA INFORMATION EFFECTIVE 08 SEPTEMBER 2022

Location

FAA Identifier: 02LS
Lat/Long: 30-08-54.0000N 091-55-08.5000W
30-08.900000N 091-55.141667W
30.1483333,-91.9190278
(estimated)
Elevation: 25 ft. / 8 m (estimated)
Variation: 02E (2000)
From city: 3 miles W of BROUSSARD, LA
Time zone: UTC -5 (UTC -6 during Standard Time)
Zip code: 70518

Heliport Operations

Heliport use: Private use. Permission required prior to landing
Activation date: 09/2002
Control tower: no
ARTCC: HOUSTON CENTER
FSS: DE RIDDER FLIGHT SERVICE STATION
Attendance: UNATNDD
Wind indicator: yes
Segmented circle: no

Heliport Communications

WX ASOS at LFT (5 nm NW): 134.05 ((337)262-2757)
WX ASOS at ARA (7 nm S): 133.325 (337-365-0128)
WX AWOS-3 at IYA (13 nm SW): 118.875 (337-892-0526)

Nearby radio navigation aids

VOR radial/distance  VOR name  Freq  Var
LFTr123/4.7LAFAYETTE VORTAC109.8003E
LLAr035/37.5WHITE LAKE VOR/DME114.9504E
LSUr232/38.2FIGHTING TIGER VORTAC116.5006E

 
NDB name  Hdg/Dist  Freq  Var  ID
LAFFS181/8.537503ELF .-.. ..-.
ABBEVILLE062/11.823002EBNZ -... -. --..
DURALDE130/36.926302EECY . -.-. -.--

Heliport Services

Runway Information

Helipad H1

Dimensions: 24 x 24 ft. / 7 x 7 m
Surface: concrete
Traffic pattern: leftleft

Heliport Ownership and Management from official FAA records

Ownership: Privately-owned
Owner: IRIDIUM, L.L.C.
302 RUE LOUIS XIV
LAFAYETTE, LA 70508
Phone 337-394-5432
Manager: MICHAEL DEHART
1213 TERRACE HWY
BROUSSARD, LA 70518
Phone 337-394-5432

Heliport Operational Statistics

Aircraft based on the field: 1
Helicopters: 1
    

Additional Remarks

A52-H1 70 FT TREES 528 FT SURROUND HELIPAD.
FOR CD CTC LAFAYETTE APCH AT 337-262-2729, WHEN APCH CLSD CTC HOUSTON ARTCC AT 281-230-5622.

Instrument Procedures

There are no published instrument procedures at 02LS.

Some nearby airports with instrument procedures:

KLFT - Lafayette Regional Airport/Paul Fournet Field (5 nm NW)
KARA - Acadiana Regional Airport (7 nm S)
KIYA - Abbeville Chris Crusta Memorial Airport (13 nm SW)
KOPL - St Landry Parish Airport-Ahart Field (26 nm N)
4R7 - Eunice Airport (32 nm NW)
 
Loc | Ops | Rwys | IFR | FBO | Links
Com | Nav | Svcs | Stats | Notes
Area around 02LS (Windy Hill Heliport)
 
Road maps at: MapQuest Bing Google
 
Aerial photo
No photo
 
Sectional chart

 
Airport distance calculator
Flying to Windy Hill Heliport? Find the distance to fly.

From to 02LS

Sunrise and sunset
Times for 02-Oct-2022
 Local
(UTC-5)
 Zulu
(UTC)
Morning civil twilight06:3911:39
Sunrise07:0312:03
Sunset18:5123:51
Evening civil twilight19:1500:15

Current date and time
Zulu (UTC)  02-Oct-2022 11:28:13
Local (UTC-5)  02-Oct-2022 06:28:13
 
METAR
KLFT 
5nm NW 
021053Z 00000KT 10SM CLR 13/10 A3006 RMK AO2 SLP180 T01330100
KARA 
7nm S 
021053Z 33003KT 10SM CLR 12/10 A3006 RMK AO2 SLP177 T01220100
K0R3 
13nm SW 
118.875
No observation available
KIYA 
13nm SW 
021115Z AUTO 00000KT 10SM CLR 09/07 A3007 RMK AO2 T00900068
TAF
KLFT 
5nm NW 
020520Z 0206/0306 VRB04KT P6SM SKC FM021500 01007KT P6SM SKC FM030100 VRB03KT P6SM SKC
KARA 
7nm S 
020520Z 0206/0306 VRB03KT P6SM SKC FM021500 01007KT P6SM SKC FM030100 VRB03KT P6SM SKC
NOTAMs
Click for the latest NOTAMs
NOTAMs are issued by the DoD/FAA and will open in a separate window not controlled by AirNav.

 

 
 

Would you like to see your business listed on this page?

 If your business provides an interesting product or service to pilots, flight crews, aircraft, or users of the Windy Hill Heliport, you should consider listing it here.  To start the listing process, click on the button below
 
Add a business
 

Other Pages about Windy Hill Heliport

Update a link
 
Copyright © AirNav, LLC. All rights reserved. Privacy Policy  Contact